sensor_id;sensor_type;location;lat;lon;timestamp;temperature;humidity
69543;SHT31;56762;49.494;11.768;2022-09-20T00:01:25;10.08;88.44
69543;SHT31;56762;49.494;11.768;2022-09-20T00:03:56;10.09;88.33
69543;SHT31;56762;49.494;11.768;2022-09-20T00:06:26;10.10;87.66
69543;SHT31;56762;49.494;11.768;2022-09-20T00:08:55;10.05;88.04
69543;SHT31;56762;49.494;11.768;2022-09-20T00:11:28;10.05;88.49
69543;SHT31;56762;49.494;11.768;2022-09-20T00:13:59;10.03;88.25
69543;SHT31;56762;49.494;11.768;2022-09-20T00:16:29;10.02;88.48
69543;SHT31;56762;49.494;11.768;2022-09-20T00:18:59;10.01;88.61
69543;SHT31;56762;49.494;11.768;2022-09-20T00:21:31;10.01;88.68
69543;SHT31;56762;49.494;11.768;2022-09-20T00:23:59;10.02;88.47
69543;SHT31;56762;49.494;11.768;2022-09-20T00:26:28;10.05;88.14
69543;SHT31;56762;49.494;11.768;2022-09-20T00:28:57;10.09;88.40
69543;SHT31;56762;49.494;11.768;2022-09-20T00:31:26;10.12;88.29
69543;SHT31;56762;49.494;11.768;2022-09-20T00:33:54;10.12;88.18
69543;SHT31;56762;49.494;11.768;2022-09-20T00:36:40;10.13;88.12
69543;SHT31;56762;49.494;11.768;2022-09-20T00:39:10;10.13;88.03
69543;SHT31;56762;49.494;11.768;2022-09-20T00:41:40;10.12;88.05
69543;SHT31;56762;49.494;11.768;2022-09-20T00:44:41;10.08;87.89
69543;SHT31;56762;49.494;11.768;2022-09-20T00:47:18;10.02;88.02
69543;SHT31;56762;49.494;11.768;2022-09-20T00:49:48;10.01;88.06
69543;SHT31;56762;49.494;11.768;2022-09-20T00:52:17;9.99;88.50
69543;SHT31;56762;49.494;11.768;2022-09-20T00:54:48;9.98;88.42
69543;SHT31;56762;49.494;11.768;2022-09-20T00:57:18;9.99;88.16
69543;SHT31;56762;49.494;11.768;2022-09-20T00:59:48;9.97;88.15
69543;SHT31;56762;49.494;11.768;2022-09-20T01:02:20;9.98;88.16
69543;SHT31;56762;49.494;11.768;2022-09-20T01:04:52;9.97;88.23
69543;SHT31;56762;49.494;11.768;2022-09-20T01:07:21;9.94;88.60
69543;SHT31;56762;49.494;11.768;2022-09-20T01:09:49;9.99;88.47
69543;SHT31;56762;49.494;11.768;2022-09-20T01:12:21;9.98;88.69
69543;SHT31;56762;49.494;11.768;2022-09-20T01:14:50;10.01;88.28
69543;SHT31;56762;49.494;11.768;2022-09-20T01:17:22;10.01;88.36
69543;SHT31;56762;49.494;11.768;2022-09-20T01:20:03;10.01;88.47
69543;SHT31;56762;49.494;11.768;2022-09-20T01:22:40;10.01;88.70
69543;SHT31;56762;49.494;11.768;2022-09-20T01:25:14;10.01;88.47
69543;SHT31;56762;49.494;11.768;2022-09-20T01:27:46;10.02;88.33
69543;SHT31;56762;49.494;11.768;2022-09-20T01:30:17;10.03;88.75
69543;SHT31;56762;49.494;11.768;2022-09-20T01:32:58;10.05;88.90
69543;SHT31;56762;49.494;11.768;2022-09-20T01:35:30;10.09;88.34
69543;SHT31;56762;49.494;11.768;2022-09-20T01:41:00;10.13;88.41
69543;SHT31;56762;49.494;11.768;2022-09-20T01:43:35;10.16;88.22
69543;SHT31;56762;49.494;11.768;2022-09-20T01:46:14;10.18;87.99
69543;SHT31;56762;49.494;11.768;2022-09-20T01:48:47;10.19;87.73
69543;SHT31;56762;49.494;11.768;2022-09-20T01:51:34;10.18;88.23
69543;SHT31;56762;49.494;11.768;2022-09-20T01:57:18;10.18;88.24
69543;SHT31;56762;49.494;11.768;2022-09-20T02:00:03;10.15;88.38
69543;SHT31;56762;49.494;11.768;2022-09-20T02:03:06;10.18;87.72
69543;SHT31;56762;49.494;11.768;2022-09-20T02:05:52;10.20;87.84
69543;SHT31;56762;49.494;11.768;2022-09-20T02:08:41;10.16;87.77
69543;SHT31;56762;49.494;11.768;2022-09-20T02:11:16;10.13;88.10
69543;SHT31;56762;49.494;11.768;2022-09-20T02:14:01;10.16;87.67
69543;SHT31;56762;49.494;11.768;2022-09-20T02:16:53;10.12;87.93
69543;SHT31;56762;49.494;11.768;2022-09-20T02:19:36;10.12;88.25
69543;SHT31;56762;49.494;11.768;2022-09-20T02:22:20;10.13;88.26
69543;SHT31;56762;49.494;11.768;2022-09-20T02:24:54;10.13;87.86
69543;SHT31;56762;49.494;11.768;2022-09-20T02:27:31;10.12;87.83
69543;SHT31;56762;49.494;11.768;2022-09-20T02:30:13;10.10;88.10
69543;SHT31;56762;49.494;11.768;2022-09-20T02:33:03;10.10;88.41
69543;SHT31;56762;49.494;11.768;2022-09-20T02:35:41;10.10;88.27
69543;SHT31;56762;49.494;11.768;2022-09-20T02:38:24;10.13;87.91
69543;SHT31;56762;49.494;11.768;2022-09-20T02:41:17;10.18;87.91
69543;SHT31;56762;49.494;11.768;2022-09-20T02:43:52;10.18;87.86
69543;SHT31;56762;49.494;11.768;2022-09-20T02:46:24;10.15;88.54
69543;SHT31;56762;49.494;11.768;2022-09-20T02:49:01;10.16;88.39
69543;SHT31;56762;49.494;11.768;2022-09-20T02:51:38;10.16;88.60
69543;SHT31;56762;49.494;11.768;2022-09-20T02:54:15;10.19;88.11
69543;SHT31;56762;49.494;11.768;2022-09-20T02:56:50;10.22;88.04
69543;SHT31;56762;49.494;11.768;2022-09-20T02:59:27;10.23;88.20
69543;SHT31;56762;49.494;11.768;2022-09-20T03:02:07;10.19;88.04
69543;SHT31;56762;49.494;11.768;2022-09-20T03:04:47;10.19;87.94
69543;SHT31;56762;49.494;11.768;2022-09-20T03:07:20;10.22;87.93
69543;SHT31;56762;49.494;11.768;2022-09-20T03:09:53;10.23;87.82
69543;SHT31;56762;49.494;11.768;2022-09-20T03:12:31;10.25;87.98
69543;SHT31;56762;49.494;11.768;2022-09-20T03:15:10;10.22;88.05
69543;SHT31;56762;49.494;11.768;2022-09-20T03:17:47;10.25;88.26
69543;SHT31;56762;49.494;11.768;2022-09-20T03:20:26;10.22;88.19
69543;SHT31;56762;49.494;11.768;2022-09-20T03:23:00;10.23;88.48
69543;SHT31;56762;49.494;11.768;2022-09-20T03:25:40;10.25;88.44
69543;SHT31;56762;49.494;11.768;2022-09-20T03:28:27;10.28;88.69
69543;SHT31;56762;49.494;11.768;2022-09-20T03:31:07;10.26;88.33
69543;SHT31;56762;49.494;11.768;2022-09-20T03:33:45;10.23;88.15
69543;SHT31;56762;49.494;11.768;2022-09-20T03:36:30;10.25;88.38
69543;SHT31;56762;49.494;11.768;2022-09-20T03:42:14;10.26;88.04
69543;SHT31;56762;49.494;11.768;2022-09-20T03:48:17;10.28;87.80
69543;SHT31;56762;49.494;11.768;2022-09-20T03:50:56;10.28;87.39
69543;SHT31;56762;49.494;11.768;2022-09-20T03:54:03;10.23;87.77
69543;SHT31;56762;49.494;11.768;2022-09-20T03:56:58;10.22;87.83
69543;SHT31;56762;49.494;11.768;2022-09-20T03:59:58;10.13;87.77
69543;SHT31;56762;49.494;11.768;2022-09-20T04:02:42;10.15;87.98
69543;SHT31;56762;49.494;11.768;2022-09-20T04:05:14;10.12;88.09
69543;SHT31;56762;49.494;11.768;2022-09-20T04:07:54;10.06;87.59
69543;SHT31;56762;49.494;11.768;2022-09-20T04:10:34;10.05;88.04
69543;SHT31;56762;49.494;11.768;2022-09-20T04:13:19;10.03;88.06
69543;SHT31;56762;49.494;11.768;2022-09-20T04:16:04;10.02;88.12
69543;SHT31;56762;49.494;11.768;2022-09-20T04:18:38;10.02;88.00
69543;SHT31;56762;49.494;11.768;2022-09-20T04:21:13;10.03;87.79
69543;SHT31;56762;49.494;11.768;2022-09-20T04:23:48;10.01;87.70
69543;SHT31;56762;49.494;11.768;2022-09-20T04:26:22;9.98;87.70
69543;SHT31;56762;49.494;11.768;2022-09-20T04:28:54;9.97;87.33
69543;SHT31;56762;49.494;11.768;2022-09-20T04:31:32;9.94;87.25
69543;SHT31;56762;49.494;11.768;2022-09-20T04:34:04;9.94;87.27
69543;SHT31;56762;49.494;11.768;2022-09-20T04:36:49;9.88;87.71
69543;SHT31;56762;49.494;11.768;2022-09-20T04:39:28;9.87;87.79
69543;SHT31;56762;49.494;11.768;2022-09-20T04:42:20;9.88;88.03
69543;SHT31;56762;49.494;11.768;2022-09-20T04:45:30;9.85;87.91
69543;SHT31;56762;49.494;11.768;2022-09-20T04:48:28;9.87;88.06
69543;SHT31;56762;49.494;11.768;2022-09-20T04:51:16;9.82;88.40
69543;SHT31;56762;49.494;11.768;2022-09-20T04:54:32;9.81;88.23
69543;SHT31;56762;49.494;11.768;2022-09-20T04:57:31;9.79;88.06
69543;SHT31;56762;49.494;11.768;2022-09-20T05:00:07;9.75;88.47
69543;SHT31;56762;49.494;11.768;2022-09-20T05:03:14;9.73;88.05
69543;SHT31;56762;49.494;11.768;2022-09-20T05:15:19;9.67;87.84
69543;SHT31;56762;49.494;11.768;2022-09-20T05:18:09;9.64;88.07
69543;SHT31;56762;49.494;11.768;2022-09-20T05:20:46;9.62;88.00
69543;SHT31;56762;49.494;11.768;2022-09-20T05:23:38;9.61;86.65
69543;SHT31;56762;49.494;11.768;2022-09-20T05:26:21;9.61;87.11
69543;SHT31;56762;49.494;11.768;2022-09-20T05:28:57;9.59;87.33
69543;SHT31;56762;49.494;11.768;2022-09-20T05:31:35;9.65;87.60
69543;SHT31;56762;49.494;11.768;2022-09-20T05:34:13;9.67;87.68
69543;SHT31;56762;49.494;11.768;2022-09-20T05:36:52;9.67;87.27
69543;SHT31;56762;49.494;11.768;2022-09-20T05:39:32;9.68;87.28
69543;SHT31;56762;49.494;11.768;2022-09-20T05:42:10;9.68;86.69
69543;SHT31;56762;49.494;11.768;2022-09-20T05:44:52;9.71;87.35
69543;SHT31;56762;49.494;11.768;2022-09-20T05:47:33;9.78;86.97
69543;SHT31;56762;49.494;11.768;2022-09-20T05:50:24;9.81;86.98
69543;SHT31;56762;49.494;11.768;2022-09-20T05:53:00;9.87;87.14
69543;SHT31;56762;49.494;11.768;2022-09-20T05:55:45;9.95;87.43
69543;SHT31;56762;49.494;11.768;2022-09-20T05:58:27;10.05;86.00
69543;SHT31;56762;49.494;11.768;2022-09-20T06:01:01;10.06;86.49
69543;SHT31;56762;49.494;11.768;2022-09-20T06:03:38;10.09;86.02
69543;SHT31;56762;49.494;11.768;2022-09-20T06:06:13;10.12;86.10
69543;SHT31;56762;49.494;11.768;2022-09-20T06:08:59;10.15;86.03
69543;SHT31;56762;49.494;11.768;2022-09-20T06:15:15;10.13;85.58
69543;SHT31;56762;49.494;11.768;2022-09-20T06:17:54;10.16;85.48
69543;SHT31;56762;49.494;11.768;2022-09-20T06:20:28;10.18;85.33
69543;SHT31;56762;49.494;11.768;2022-09-20T06:23:02;10.19;85.37
69543;SHT31;56762;49.494;11.768;2022-09-20T06:25:33;10.22;85.51
69543;SHT31;56762;49.494;11.768;2022-09-20T06:28:11;10.33;85.32
69543;SHT31;56762;49.494;11.768;2022-09-20T06:30:43;10.45;85.58
69543;SHT31;56762;49.494;11.768;2022-09-20T06:33:15;10.50;85.29
69543;SHT31;56762;49.494;11.768;2022-09-20T06:35:51;10.55;84.26
69543;SHT31;56762;49.494;11.768;2022-09-20T06:38:38;10.57;84.44
69543;SHT31;56762;49.494;11.768;2022-09-20T06:41:30;10.56;84.52
69543;SHT31;56762;49.494;11.768;2022-09-20T06:44:00;10.59;85.38
69543;SHT31;56762;49.494;11.768;2022-09-20T06:46:31;10.66;85.55
69543;SHT31;56762;49.494;11.768;2022-09-20T06:48:59;10.66;84.71
69543;SHT31;56762;49.494;11.768;2022-09-20T06:51:35;10.66;84.74
69543;SHT31;56762;49.494;11.768;2022-09-20T06:54:04;10.64;84.14
69543;SHT31;56762;49.494;11.768;2022-09-20T06:56:37;10.70;84.12
69543;SHT31;56762;49.494;11.768;2022-09-20T06:59:05;10.67;83.32
69543;SHT31;56762;49.494;11.768;2022-09-20T07:01:34;10.66;83.50
69543;SHT31;56762;49.494;11.768;2022-09-20T07:04:02;10.66;82.92
69543;SHT31;56762;49.494;11.768;2022-09-20T07:06:32;10.67;83.48
69543;SHT31;56762;49.494;11.768;2022-09-20T07:09:00;10.70;83.33
69543;SHT31;56762;49.494;11.768;2022-09-20T07:11:28;10.74;83.66
69543;SHT31;56762;49.494;11.768;2022-09-20T07:14:40;10.77;83.89
69543;SHT31;56762;49.494;11.768;2022-09-20T07:17:08;10.77;83.87
69543;SHT31;56762;49.494;11.768;2022-09-20T07:19:36;10.83;83.88
69543;SHT31;56762;49.494;11.768;2022-09-20T07:22:05;10.83;83.11
69543;SHT31;56762;49.494;11.768;2022-09-20T07:24:33;10.85;83.21
69543;SHT31;56762;49.494;11.768;2022-09-20T07:27:03;10.97;83.20
69543;SHT31;56762;49.494;11.768;2022-09-20T07:29:32;11.03;82.73
69543;SHT31;56762;49.494;11.768;2022-09-20T07:32:01;11.07;81.98
69543;SHT31;56762;49.494;11.768;2022-09-20T07:34:28;11.11;82.92
69543;SHT31;56762;49.494;11.768;2022-09-20T07:36:57;11.07;82.09
69543;SHT31;56762;49.494;11.768;2022-09-20T07:39:27;11.01;82.69
69543;SHT31;56762;49.494;11.768;2022-09-20T07:41:55;11.03;83.31
69543;SHT31;56762;49.494;11.768;2022-09-20T07:44:23;10.97;83.49
69543;SHT31;56762;49.494;11.768;2022-09-20T07:46:51;11.00;83.78
69543;SHT31;56762;49.494;11.768;2022-09-20T07:49:20;10.88;83.85
69543;SHT31;56762;49.494;11.768;2022-09-20T07:51:49;10.87;84.54
69543;SHT31;56762;49.494;11.768;2022-09-20T07:54:18;10.93;84.96
69543;SHT31;56762;49.494;11.768;2022-09-20T07:56:47;11.00;84.95
69543;SHT31;56762;49.494;11.768;2022-09-20T07:59:15;11.07;84.41
69543;SHT31;56762;49.494;11.768;2022-09-20T08:01:43;11.04;83.48
69543;SHT31;56762;49.494;11.768;2022-09-20T08:04:11;10.98;83.23
69543;SHT31;56762;49.494;11.768;2022-09-20T08:06:42;10.91;83.45
69543;SHT31;56762;49.494;11.768;2022-09-20T08:09:12;10.90;83.03
69543;SHT31;56762;49.494;11.768;2022-09-20T08:11:41;10.85;83.97
69543;SHT31;56762;49.494;11.768;2022-09-20T08:14:13;10.91;84.76
69543;SHT31;56762;49.494;11.768;2022-09-20T08:16:45;10.97;84.61
69543;SHT31;56762;49.494;11.768;2022-09-20T08:19:14;11.00;84.12
69543;SHT31;56762;49.494;11.768;2022-09-20T08:21:43;11.08;84.59
69543;SHT31;56762;49.494;11.768;2022-09-20T08:24:11;11.15;83.68
69543;SHT31;56762;49.494;11.768;2022-09-20T08:26:40;11.12;83.59
69543;SHT31;56762;49.494;11.768;2022-09-20T08:29:10;11.11;83.13
69543;SHT31;56762;49.494;11.768;2022-09-20T08:31:40;11.03;83.60
69543;SHT31;56762;49.494;11.768;2022-09-20T08:34:11;11.03;83.95
69543;SHT31;56762;49.494;11.768;2022-09-20T08:36:42;11.14;83.35
69543;SHT31;56762;49.494;11.768;2022-09-20T08:39:12;11.31;81.87
69543;SHT31;56762;49.494;11.768;2022-09-20T08:42:11;11.36;80.85
69543;SHT31;56762;49.494;11.768;2022-09-20T08:44:46;11.45;79.92
69543;SHT31;56762;49.494;11.768;2022-09-20T08:47:27;11.55;80.38
69543;SHT31;56762;49.494;11.768;2022-09-20T08:49:56;11.59;79.72
69543;SHT31;56762;49.494;11.768;2022-09-20T08:52:28;11.58;77.84
69543;SHT31;56762;49.494;11.768;2022-09-20T08:55:03;11.56;78.79
69543;SHT31;56762;49.494;11.768;2022-09-20T08:57:36;11.59;78.69
69543;SHT31;56762;49.494;11.768;2022-09-20T09:00:05;11.58;79.63
69543;SHT31;56762;49.494;11.768;2022-09-20T09:02:35;11.68;78.08
69543;SHT31;56762;49.494;11.768;2022-09-20T09:05:08;11.70;78.93
69543;SHT31;56762;49.494;11.768;2022-09-20T09:07:43;11.70;78.78
69543;SHT31;56762;49.494;11.768;2022-09-20T09:10:10;11.73;79.06
69543;SHT31;56762;49.494;11.768;2022-09-20T09:12:41;11.73;78.52
69543;SHT31;56762;49.494;11.768;2022-09-20T09:15:21;11.76;78.17
69543;SHT31;56762;49.494;11.768;2022-09-20T09:17:54;11.75;79.15
69543;SHT31;56762;49.494;11.768;2022-09-20T09:20:23;11.75;78.88
69543;SHT31;56762;49.494;11.768;2022-09-20T09:23:00;11.80;78.52
69543;SHT31;56762;49.494;11.768;2022-09-20T09:25:29;11.86;79.42
69543;SHT31;56762;49.494;11.768;2022-09-20T09:28:01;11.93;76.56
69543;SHT31;56762;49.494;11.768;2022-09-20T09:30:32;12.01;76.27
69543;SHT31;56762;49.494;11.768;2022-09-20T09:33:22;12.04;78.99
69543;SHT31;56762;49.494;11.768;2022-09-20T09:35:54;12.10;77.70
69543;SHT31;56762;49.494;11.768;2022-09-20T09:38:24;12.13;76.44
69543;SHT31;56762;49.494;11.768;2022-09-20T09:40:54;12.13;76.64
69543;SHT31;56762;49.494;11.768;2022-09-20T09:43:24;12.12;76.12
69543;SHT31;56762;49.494;11.768;2022-09-20T09:45:55;12.13;77.13
69543;SHT31;56762;49.494;11.768;2022-09-20T09:48:27;12.17;76.66
69543;SHT31;56762;49.494;11.768;2022-09-20T09:51:07;12.21;76.10
69543;SHT31;56762;49.494;11.768;2022-09-20T09:53:36;12.14;76.33
69543;SHT31;56762;49.494;11.768;2022-09-20T09:59:31;12.24;74.16
69543;SHT31;56762;49.494;11.768;2022-09-20T10:02:06;12.26;74.18
69543;SHT31;56762;49.494;11.768;2022-09-20T10:04:47;12.24;73.68
69543;SHT31;56762;49.494;11.768;2022-09-20T10:07:23;12.18;74.78
69543;SHT31;56762;49.494;11.768;2022-09-20T10:10:01;12.14;74.38
69543;SHT31;56762;49.494;11.768;2022-09-20T10:12:45;12.14;75.03
69543;SHT31;56762;49.494;11.768;2022-09-20T10:15:25;12.01;74.93
69543;SHT31;56762;49.494;11.768;2022-09-20T10:18:06;11.96;73.17
69543;SHT31;56762;49.494;11.768;2022-09-20T10:20:58;11.80;75.03
69543;SHT31;56762;49.494;11.768;2022-09-20T10:23:39;11.86;75.69
69543;SHT31;56762;49.494;11.768;2022-09-20T10:26:38;11.97;76.35
69543;SHT31;56762;49.494;11.768;2022-09-20T10:29:17;12.24;74.84
69543;SHT31;56762;49.494;11.768;2022-09-20T10:31:57;12.40;74.11
69543;SHT31;56762;49.494;11.768;2022-09-20T10:34:50;12.58;74.22
69543;SHT31;56762;49.494;11.768;2022-09-20T10:37:30;12.61;75.18
69543;SHT31;56762;49.494;11.768;2022-09-20T10:40:07;12.58;75.10
69543;SHT31;56762;49.494;11.768;2022-09-20T10:42:45;12.54;77.34
69543;SHT31;56762;49.494;11.768;2022-09-20T10:45:35;12.41;77.27
69543;SHT31;56762;49.494;11.768;2022-09-20T10:48:31;12.23;77.60
69543;SHT31;56762;49.494;11.768;2022-09-20T10:51:03;12.13;79.24
69543;SHT31;56762;49.494;11.768;2022-09-20T10:53:40;12.06;80.40
69543;SHT31;56762;49.494;11.768;2022-09-20T10:56:21;12.04;80.11
69543;SHT31;56762;49.494;11.768;2022-09-20T11:02:06;12.00;81.07
69543;SHT31;56762;49.494;11.768;2022-09-20T11:05:04;11.89;80.33
69543;SHT31;56762;49.494;11.768;2022-09-20T11:07:45;11.89;79.45
69543;SHT31;56762;49.494;11.768;2022-09-20T11:10:21;11.76;79.94
69543;SHT31;56762;49.494;11.768;2022-09-20T11:12:54;11.70;80.88
69543;SHT31;56762;49.494;11.768;2022-09-20T11:15:27;11.75;79.95
69543;SHT31;56762;49.494;11.768;2022-09-20T11:18:01;11.83;79.04
69543;SHT31;56762;49.494;11.768;2022-09-20T11:20:34;11.87;79.43
69543;SHT31;56762;49.494;11.768;2022-09-20T11:23:05;12.01;80.57
69543;SHT31;56762;49.494;11.768;2022-09-20T11:25:41;12.16;79.52
69543;SHT31;56762;49.494;11.768;2022-09-20T11:28:17;12.16;79.12
69543;SHT31;56762;49.494;11.768;2022-09-20T11:30:52;12.17;77.06
69543;SHT31;56762;49.494;11.768;2022-09-20T11:33:26;12.24;76.42
69543;SHT31;56762;49.494;11.768;2022-09-20T11:35:57;12.27;77.61
69543;SHT31;56762;49.494;11.768;2022-09-20T11:38:32;12.26;77.75
69543;SHT31;56762;49.494;11.768;2022-09-20T11:41:07;12.30;77.72
69543;SHT31;56762;49.494;11.768;2022-09-20T11:43:37;12.27;77.60
69543;SHT31;56762;49.494;11.768;2022-09-20T11:46:12;12.31;77.74
69543;SHT31;56762;49.494;11.768;2022-09-20T11:48:43;12.34;76.44
69543;SHT31;56762;49.494;11.768;2022-09-20T11:51:37;12.28;76.82
69543;SHT31;56762;49.494;11.768;2022-09-20T11:57:04;12.33;77.58
69543;SHT31;56762;49.494;11.768;2022-09-20T11:59:35;12.33;77.08
69543;SHT31;56762;49.494;11.768;2022-09-20T12:02:13;12.24;77.63
69543;SHT31;56762;49.494;11.768;2022-09-20T12:04:45;12.30;77.42
69543;SHT31;56762;49.494;11.768;2022-09-20T12:07:22;12.33;75.78
69543;SHT31;56762;49.494;11.768;2022-09-20T12:09:54;12.33;75.59
69543;SHT31;56762;49.494;11.768;2022-09-20T12:12:38;12.49;75.40
69543;SHT31;56762;49.494;11.768;2022-09-20T12:15:22;12.48;74.69
69543;SHT31;56762;49.494;11.768;2022-09-20T12:18:04;12.47;74.37
69543;SHT31;56762;49.494;11.768;2022-09-20T12:24:01;12.52;72.46
69543;SHT31;56762;49.494;11.768;2022-09-20T12:26:43;12.54;72.90
69543;SHT31;56762;49.494;11.768;2022-09-20T12:32:51;12.74;72.81
69543;SHT31;56762;49.494;11.768;2022-09-20T12:36:13;12.87;70.96
69543;SHT31;56762;49.494;11.768;2022-09-20T12:38:47;12.99;69.98
69543;SHT31;56762;49.494;11.768;2022-09-20T12:41:18;12.89;70.97
69543;SHT31;56762;49.494;11.768;2022-09-20T12:43:59;12.91;69.90
69543;SHT31;56762;49.494;11.768;2022-09-20T12:46:41;12.88;70.69
69543;SHT31;56762;49.494;11.768;2022-09-20T12:49:33;12.92;70.11
69543;SHT31;56762;49.494;11.768;2022-09-20T12:52:27;12.92;69.02
69543;SHT31;56762;49.494;11.768;2022-09-20T12:55:27;12.91;69.17
69543;SHT31;56762;49.494;11.768;2022-09-20T12:57:58;13.02;70.03
69543;SHT31;56762;49.494;11.768;2022-09-20T13:00:31;13.13;70.52
69543;SHT31;56762;49.494;11.768;2022-09-20T13:03:10;13.29;70.01
69543;SHT31;56762;49.494;11.768;2022-09-20T13:05:41;13.47;67.78
69543;SHT31;56762;49.494;11.768;2022-09-20T13:08:14;13.57;67.96
69543;SHT31;56762;49.494;11.768;2022-09-20T13:10:46;13.66;66.80
69543;SHT31;56762;49.494;11.768;2022-09-20T13:13:35;13.68;66.07
69543;SHT31;56762;49.494;11.768;2022-09-20T13:16:05;13.60;66.07
69543;SHT31;56762;49.494;11.768;2022-09-20T13:18:35;13.66;65.23
69543;SHT31;56762;49.494;11.768;2022-09-20T13:21:05;13.64;64.61
69543;SHT31;56762;49.494;11.768;2022-09-20T13:23:43;13.75;65.17
69543;SHT31;56762;49.494;11.768;2022-09-20T13:26:14;13.75;64.45
69543;SHT31;56762;49.494;11.768;2022-09-20T13:28:47;13.82;64.79
69543;SHT31;56762;49.494;11.768;2022-09-20T13:31:31;13.94;63.93
69543;SHT31;56762;49.494;11.768;2022-09-20T13:34:12;13.98;65.91
69543;SHT31;56762;49.494;11.768;2022-09-20T13:36:44;14.15;63.34
69543;SHT31;56762;49.494;11.768;2022-09-20T13:39:23;14.15;62.38
69543;SHT31;56762;49.494;11.768;2022-09-20T13:41:52;14.14;62.08
69543;SHT31;56762;49.494;11.768;2022-09-20T13:44:20;14.12;63.04
69543;SHT31;56762;49.494;11.768;2022-09-20T13:46:50;14.05;64.38
69543;SHT31;56762;49.494;11.768;2022-09-20T13:49:19;14.00;63.85
69543;SHT31;56762;49.494;11.768;2022-09-20T13:51:50;13.92;65.24
69543;SHT31;56762;49.494;11.768;2022-09-20T13:54:23;13.53;66.25
69543;SHT31;56762;49.494;11.768;2022-09-20T13:56:54;13.37;66.34
69543;SHT31;56762;49.494;11.768;2022-09-20T13:59:25;13.09;69.24
69543;SHT31;56762;49.494;11.768;2022-09-20T14:01:56;12.82;71.68
69543;SHT31;56762;49.494;11.768;2022-09-20T14:04:26;12.51;74.08
69543;SHT31;56762;49.494;11.768;2022-09-20T14:06:57;11.94;78.78
69543;SHT31;56762;49.494;11.768;2022-09-20T14:09:28;11.56;80.60
69543;SHT31;56762;49.494;11.768;2022-09-20T14:11:58;11.32;82.14
69543;SHT31;56762;49.494;11.768;2022-09-20T14:14:26;11.18;81.63
69543;SHT31;56762;49.494;11.768;2022-09-20T14:16:55;11.08;86.18
69543;SHT31;56762;49.494;11.768;2022-09-20T14:19:27;11.04;87.59
69543;SHT31;56762;49.494;11.768;2022-09-20T14:21:58;11.00;87.13
69543;SHT31;56762;49.494;11.768;2022-09-20T14:24:30;10.97;87.78
69543;SHT31;56762;49.494;11.768;2022-09-20T14:27:16;11.00;89.13
69543;SHT31;56762;49.494;11.768;2022-09-20T14:29:45;11.04;89.79
69543;SHT31;56762;49.494;11.768;2022-09-20T14:32:38;11.07;90.12
69543;SHT31;56762;49.494;11.768;2022-09-20T14:35:15;11.08;87.28
69543;SHT31;56762;49.494;11.768;2022-09-20T14:37:47;11.12;85.15
69543;SHT31;56762;49.494;11.768;2022-09-20T14:40:20;10.96;83.98
69543;SHT31;56762;49.494;11.768;2022-09-20T14:42:52;10.67;85.48
69543;SHT31;56762;49.494;11.768;2022-09-20T14:45:23;10.50;85.35
69543;SHT31;56762;49.494;11.768;2022-09-20T14:47:55;10.46;87.20
69543;SHT31;56762;49.494;11.768;2022-09-20T14:50:26;10.49;88.28
69543;SHT31;56762;49.494;11.768;2022-09-20T14:53:24;10.50;87.59
69543;SHT31;56762;49.494;11.768;2022-09-20T14:55:58;10.56;85.08
69543;SHT31;56762;49.494;11.768;2022-09-20T14:58:26;10.59;87.10
69543;SHT31;56762;49.494;11.768;2022-09-20T15:00:56;10.70;86.46
69543;SHT31;56762;49.494;11.768;2022-09-20T15:03:29;10.73;82.98
69543;SHT31;56762;49.494;11.768;2022-09-20T15:05:58;10.68;86.00
69543;SHT31;56762;49.494;11.768;2022-09-20T15:08:27;10.70;83.28
69543;SHT31;56762;49.494;11.768;2022-09-20T15:10:55;10.74;83.02
69543;SHT31;56762;49.494;11.768;2022-09-20T15:13:25;10.67;83.55
69543;SHT31;56762;49.494;11.768;2022-09-20T15:15:54;10.67;83.97
69543;SHT31;56762;49.494;11.768;2022-09-20T15:18:23;10.66;81.97
69543;SHT31;56762;49.494;11.768;2022-09-20T15:20:53;10.57;86.31
69543;SHT31;56762;49.494;11.768;2022-09-20T15:23:21;10.53;85.59
69543;SHT31;56762;49.494;11.768;2022-09-20T15:25:52;10.55;87.07
69543;SHT31;56762;49.494;11.768;2022-09-20T15:28:20;10.60;85.69
69543;SHT31;56762;49.494;11.768;2022-09-20T15:30:50;10.57;86.20
69543;SHT31;56762;49.494;11.768;2022-09-20T15:33:18;10.60;86.25
69543;SHT31;56762;49.494;11.768;2022-09-20T15:35:47;10.63;87.40
69543;SHT31;56762;49.494;11.768;2022-09-20T15:38:16;10.68;88.66
69543;SHT31;56762;49.494;11.768;2022-09-20T15:40:45;10.67;88.94
69543;SHT31;56762;49.494;11.768;2022-09-20T15:43:16;10.66;87.45
69543;SHT31;56762;49.494;11.768;2022-09-20T15:45:47;10.73;89.12
69543;SHT31;56762;49.494;11.768;2022-09-20T15:48:16;10.71;90.00
69543;SHT31;56762;49.494;11.768;2022-09-20T15:50:58;10.70;89.57
69543;SHT31;56762;49.494;11.768;2022-09-20T15:53:27;10.70;89.45
69543;SHT31;56762;49.494;11.768;2022-09-20T15:55:58;10.70;89.16
69543;SHT31;56762;49.494;11.768;2022-09-20T15:58:29;10.70;85.79
69543;SHT31;56762;49.494;11.768;2022-09-20T16:01:03;10.68;85.88
69543;SHT31;56762;49.494;11.768;2022-09-20T16:03:32;10.68;88.07
69543;SHT31;56762;49.494;11.768;2022-09-20T16:06:01;10.68;87.35
69543;SHT31;56762;49.494;11.768;2022-09-20T16:08:30;10.68;87.08
69543;SHT31;56762;49.494;11.768;2022-09-20T16:10:59;10.64;85.95
69543;SHT31;56762;49.494;11.768;2022-09-20T16:13:29;10.61;86.55
69543;SHT31;56762;49.494;11.768;2022-09-20T16:15:58;10.59;85.29
69543;SHT31;56762;49.494;11.768;2022-09-20T16:18:27;10.57;85.87
69543;SHT31;56762;49.494;11.768;2022-09-20T16:21:13;10.59;83.72
69543;SHT31;56762;49.494;11.768;2022-09-20T16:23:45;10.59;82.80
69543;SHT31;56762;49.494;11.768;2022-09-20T16:26:14;10.59;84.11
69543;SHT31;56762;49.494;11.768;2022-09-20T16:28:44;10.55;82.42
69543;SHT31;56762;49.494;11.768;2022-09-20T16:31:28;10.56;84.50
69543;SHT31;56762;49.494;11.768;2022-09-20T16:33:57;10.50;85.02
69543;SHT31;56762;49.494;11.768;2022-09-20T16:36:26;10.55;84.57
69543;SHT31;56762;49.494;11.768;2022-09-20T16:38:54;10.47;84.69
69543;SHT31;56762;49.494;11.768;2022-09-20T16:41:23;10.40;85.58
69543;SHT31;56762;49.494;11.768;2022-09-20T16:43:53;10.39;86.65
69543;SHT31;56762;49.494;11.768;2022-09-20T16:46:23;10.36;86.16
69543;SHT31;56762;49.494;11.768;2022-09-20T16:48:53;10.35;86.75
69543;SHT31;56762;49.494;11.768;2022-09-20T16:51:23;10.35;87.73
69543;SHT31;56762;49.494;11.768;2022-09-20T16:53:52;10.32;88.02